Spring Park, MN

6:46 PM CST on December 18, 2014 (GMT -0600)
Flying Cloud | Change Station
CLOSE
Current Station
Airport
Location: Minneapolis Flying Cloud,
Elevation: 906 ft
Nearby Weather Stations

Elev 906 ft 44.83 °N, 93.46 °W | Updated 53 minutes ago

Overcast
Overcast
22 °F
Feels Like 16 °F
N
5
Wind Variable Wind from ESE

Today
High -- | Low -- °F
--% Chance of Precip.
Yesterday
High -- | Low -- °F
Precip. -- in
7:47 AM 4:34 PM
Waning Crescent, 11% visible
Pressure 30.31 in
Visibility 10.0 miles
Clouds Overcast 1700 ft
Windchill 16 °F
Dew Point 14 °F
Humidity 72%
Rainfall 0.00 in
Snow Depth Not available.
UV 0 out of 12
Pollen .10 out of 12
Air Quality Not available.
Flu Activity Not available.
METAR KFCM 182353Z 12004KT 10SM OVC017 M06/M10 A3026 RMK AO2 SLP264 60000 T10561100 11050 21067 51003

More Conditions Fewer Conditions

Pressure 30.31 in
Visibility 10.0 miles
Clouds Overcast 1700 ft
Windchill 16 °F
Dew Point 14 °F
Humidity 72%
Rainfall 0.00 in
Snow Depth Not available.
UV 0 out of 12
Pollen .10 out of 12
Air Quality Not available.
Flu Activity Not available.
METAR KFCM 182353Z 12004KT 10SM OVC017 M06/M10 A3026 RMK AO2 SLP264 60000 T10561100 11050 21067 51003

More Conditions Fewer Conditions

10-Day Weather Forecast

Almanac

Astronomy

Dec. 18, 2014 Rise Set
Actual Time
Civil Twilight
Nautical Twilight
Astronomical Twilight
Moon
Length of Visible Light
Length of Day
Tomorrow will be .
, % of the Moon is Illuminated

Today's Extremes

State Highs State Lows

Community

WunderPhotos

Upload Photos

1,779,016 photos uploaded!

WunderBlogs® & News

Nearby

Air Quality

  Air Quality AQ Index Pollutant
Not available.

Snow Depth

Station Depth Elevation

Earthquake Activity

City Distance Mag. Time & Date
Minimum magnitude displayed is 2.5.

Coastal Water Temperatures

Place Temperature

Nearby Weather Stations